Time;durP1;ratioP1;P1;durP2;ratioP2;P2;SDS_P1;SDS_P2;PMS_P1;PMS_P2;Temp;Humidity;BMP_temperature;BMP_pressure;BME280_temperature;BME280_humidity;BME280_pressure;Samples;Min_cycle;Max_cycle;Signal;HPM_P1;HPM_P2
2021/04/16 00:00:52;;;;;;;9.05;6.55;;;;;;;3.74;67.58;97174.17;1699669;84;21177;-75
2021/04/16 00:03:21;;;;;;;7.83;6.33;;;;;;;3.77;67.92;97177.52;1699518;83;21157;-75
2021/04/16 00:05:51;;;;;;;8.93;6.62;;;;;;;3.77;67.76;97174.47;1699719;84;21135;-75
2021/04/16 00:08:26;;;;;;;10.85;7.42;;;;;;;3.80;67.80;97169.55;1699971;83;21300;-75
2021/04/16 00:11:05;;;;;;;10.48;6.78;;;;;;;3.83;67.88;97166.80;1699621;83;21636;-76
2021/04/16 00:13:42;;;;;;;10.72;7.10;;;;;;;3.92;68.47;97168.92;1805301;77;28655;-76
2021/04/16 00:16:14;;;;;;;7.92;6.00;;;;;;;4.00;68.50;97169.80;1814472;77;21585;-77
2021/04/16 00:18:43;;;;;;;11.45;6.15;;;;;;;3.99;68.35;97162.45;1788424;80;21716;-75
2021/04/16 00:21:10;;;;;;;9.13;6.20;;;;;;;4.02;68.42;97157.09;1794391;80;21155;-76
2021/04/16 00:23:38;;;;;;;9.08;6.37;;;;;;;4.06;68.50;97158.59;1791354;80;21278;-75
2021/04/16 00:26:08;;;;;;;9.68;6.25;;;;;;;4.10;68.54;97158.44;1771062;81;21152;-77
2021/04/16 00:28:35;;;;;;;7.20;5.70;;;;;;;4.15;68.71;97157.27;1729286;80;21165;-75
2021/04/16 00:31:10;;;;;;;7.47;5.20;;;;;;;4.23;68.67;97151.63;1718221;81;21612;-75
2021/04/16 00:33:38;;;;;;;6.58;5.53;;;;;;;4.29;68.55;97155.67;1731270;81;21591;-75
2021/04/16 00:36:07;;;;;;;7.25;5.58;;;;;;;4.33;68.59;97154.59;1743441;81;21111;-76
2021/04/16 00:38:34;;;;;;;6.67;5.25;;;;;;;4.40;68.64;97151.20;1770759;81;21281;-75
2021/04/16 00:41:06;;;;;;;8.28;5.92;;;;;;;4.46;68.59;97151.69;1732301;81;21166;-75
2021/04/16 00:43:36;;;;;;;9.70;5.95;;;;;;;4.53;68.56;97150.45;1722979;82;21146;-75
2021/04/16 00:46:30;;;;;;;7.65;5.70;;;;;;;4.60;68.46;97144.88;1768533;81;21144;-76
2021/04/16 00:49:01;;;;;;;6.80;5.62;;;;;;;4.66;68.72;97152.36;1655321;87;21150;-76
2021/04/16 00:51:34;;;;;;;11.65;6.28;;;;;;;4.70;68.54;97147.36;1669626;85;21178;-77
2021/04/16 00:54:04;;;;;;;7.87;5.87;;;;;;;4.62;68.35;97150.86;1685005;85;21166;-75
2021/04/16 00:56:32;;;;;;;7.58;5.95;;;;;;;4.59;68.26;97146.66;1664013;85;21146;-75
2021/04/16 00:59:00;;;;;;;8.65;6.15;;;;;;;4.49;68.00;97158.05;1686282;85;21157;-75
2021/04/16 01:01:27;;;;;;;7.92;6.10;;;;;;;4.42;68.33;97149.33;1666981;85;21151;-76
2021/04/16 01:03:55;;;;;;;7.58;5.85;;;;;;;4.38;68.30;97150.81;1703572;84;21160;-75
2021/04/16 01:06:24;;;;;;;9.00;6.22;;;;;;;4.37;68.37;97143.91;1650827;86;21150;-75
2021/04/16 01:08:52;;;;;;;10.20;5.62;;;;;;;4.36;68.41;97147.44;1638030;87;21141;-75
2021/04/16 01:11:20;;;;;;;8.60;5.40;;;;;;;4.36;68.25;97146.61;1631629;88;21181;-76
2021/04/16 01:13:48;;;;;;;6.28;5.60;;;;;;;4.31;68.05;97143.39;1632724;88;21126;-76
2021/04/16 01:16:21;;;;;;;7.40;5.90;;;;;;;4.29;68.06;97143.93;1670705;85;21126;-75
2021/04/16 01:18:49;;;;;;;11.80;5.70;;;;;;;4.26;67.85;97144.13;1665958;85;21161;-76
2021/04/16 01:21:23;;;;;;;8.48;6.53;;;;;;;4.20;68.04;97143.51;1681417;85;21161;-75
2021/04/16 01:24:24;;;;;;;8.68;6.72;;;;;;;4.16;68.39;97142.45;1658448;86;21182;-75
2021/04/16 01:26:52;;;;;;;7.35;5.55;;;;;;;4.13;68.49;97142.16;1666896;85;21315;-74
2021/04/16 01:29:20;;;;;;;11.38;6.15;;;;;;;4.11;68.64;97139.26;1657992;86;21293;-76
2021/04/16 01:31:48;;;;;;;7.30;5.75;;;;;;;4.08;68.77;97144.63;1658959;86;21199;-75
2021/04/16 01:34:20;;;;;;;7.25;6.05;;;;;;;4.05;68.62;97143.03;1688658;83;21592;-75
2021/04/16 01:36:50;;;;;;;7.83;6.10;;;;;;;4.03;68.62;97144.88;1701261;84;21194;-75
2021/04/16 01:39:19;;;;;;;8.90;6.67;;;;;;;3.98;68.59;97143.81;1700803;84;21534;-75
2021/04/16 01:41:46;;;;;;;9.33;7.10;;;;;;;3.96;68.64;97141.74;1692930;84;21155;-75
2021/04/16 01:44:19;;;;;;;10.40;8.35;;;;;;;3.93;68.70;97143.23;1692396;84;21138;-77
2021/04/16 01:47:03;;;;;;;8.23;6.97;;;;;;;3.90;68.81;97138.16;1701087;84;21162;-76
2021/04/16 01:49:35;;;;;;;8.85;7.05;;;;;;;3.86;68.95;97135.33;1696499;84;21605;-76
2021/04/16 01:52:07;;;;;;;11.88;9.03;;;;;;;3.83;68.37;97135.50;1687333;84;21166;-75
2021/04/16 01:54:42;;;;;;;11.08;7.90;;;;;;;3.78;68.47;97131.83;1675927;85;21179;-76
2021/04/16 01:57:18;;;;;;;10.25;7.47;;;;;;;3.64;68.61;97132.55;1675753;86;21148;-76
2021/04/16 01:59:48;;;;;;;9.20;7.33;;;;;;;3.55;68.81;97131.25;1689622;84;21139;-77
2021/04/16 02:02:23;;;;;;;10.48;8.00;;;;;;;3.56;69.11;97126.89;1695509;84;21119;-76
2021/04/16 02:04:51;;;;;;;10.13;7.87;;;;;;;3.61;69.20;97124.05;1674625;84;21200;-74
2021/04/16 02:07:21;;;;;;;9.40;7.58;;;;;;;3.65;69.60;97121.20;1677328;84;21163;-74
2021/04/16 02:09:49;;;;;;;12.80;8.23;;;;;;;3.72;69.74;97119.09;1681287;84;21163;-76
2021/04/16 02:12:21;;;;;;;9.48;7.35;;;;;;;3.78;69.77;97122.70;1678853;84;21147;-75
2021/04/16 02:14:52;;;;;;;11.15;8.33;;;;;;;3.85;69.86;97118.02;1687465;84;21209;-77
2021/04/16 02:17:25;;;;;;;11.45;8.53;;;;;;;3.91;69.94;97115.08;1675813;84;21131;-77
2021/04/16 02:19:57;;;;;;;9.85;7.85;;;;;;;3.98;69.88;97113.81;1680844;84;21481;-76
2021/04/16 02:22:28;;;;;;;10.55;7.58;;;;;;;4.06;69.85;97114.72;1685915;84;21176;-76
2021/04/16 02:24:56;;;;;;;8.85;7.03;;;;;;;4.14;69.84;97107.77;1675743;84;21575;-76
2021/04/16 02:27:26;;;;;;;7.10;6.30;;;;;;;4.18;69.60;97114.04;1689445;84;21179;-75
2021/04/16 02:29:55;;;;;;;10.00;6.40;;;;;;;4.19;69.35;97117.51;1678339;84;21120;-76
2021/04/16 02:32:23;;;;;;;10.35;7.03;;;;;;;4.10;69.09;97117.53;1685533;84;21164;-76
2021/04/16 02:34:51;;;;;;;8.88;6.50;;;;;;;4.05;69.17;97113.86;1696820;84;21313;-75
2021/04/16 02:37:21;;;;;;;7.37;6.00;;;;;;;3.79;69.25;97065.73;1696581;84;21160;-76
2021/04/16 02:39:51;;;;;;;8.95;6.85;;;;;;;4.12;69.17;97112.25;1672094;84;21155;-76
2021/04/16 02:42:18;;;;;;;9.68;6.80;;;;;;;4.14;69.06;97120.36;1680695;84;21627;-76
2021/04/16 02:44:46;;;;;;;8.50;6.80;;;;;;;4.15;68.91;97115.98;1683717;84;21593;-75
2021/04/16 02:47:14;;;;;;;9.78;7.33;;;;;;;4.14;68.88;97112.54;1676176;85;21119;-76
2021/04/16 02:49:41;;;;;;;12.78;7.40;;;;;;;4.14;68.91;97112.54;1675993;84;21128;-76
2021/04/16 02:52:09;;;;;;;8.90;6.85;;;;;;;4.10;68.80;97107.57;1686793;84;21135;-78
2021/04/16 02:54:36;;;;;;;8.95;6.35;;;;;;;4.06;68.59;97106.89;1696353;84;21588;-76
2021/04/16 02:57:04;;;;;;;8.45;6.15;;;;;;;4.00;68.56;97111.98;1696696;84;21620;-76
2021/04/16 02:59:31;;;;;;;10.30;8.35;;;;;;;3.96;68.50;97114.83;1683455;84;21167;-76
2021/04/16 03:02:00;;;;;;;8.90;6.90;;;;;;;3.88;68.45;97110.02;1677091;84;21168;-75
2021/04/16 03:04:27;;;;;;;8.38;6.35;;;;;;;3.81;68.43;97116.48;1675797;85;21574;-77
2021/04/16 03:06:55;;;;;;;9.55;7.30;;;;;;;3.72;68.66;97111.27;1678698;84;21596;-76
2021/04/16 03:09:22;;;;;;;10.60;8.15;;;;;;;3.66;68.81;97110.30;1677145;84;21667;-75
2021/04/16 03:11:49;;;;;;;10.68;8.13;;;;;;;3.60;68.83;97112.77;1681903;84;21139;-77
2021/04/16 03:14:17;;;;;;;10.82;6.85;;;;;;;3.54;68.76;97115.70;1685768;84;21143;-75
2021/04/16 03:16:45;;;;;;;11.15;7.58;;;;;;;3.43;68.70;97124.08;1690681;85;21744;-76
2021/04/16 03:19:12;;;;;;;11.03;7.87;;;;;;;3.40;69.18;97125.05;1679962;84;21178;-75
2021/04/16 03:21:40;;;;;;;9.03;7.28;;;;;;;3.42;69.49;97128.43;1683520;84;21143;-75
2021/04/16 03:24:08;;;;;;;9.90;7.15;;;;;;;3.46;69.53;97128.28;1676334;84;21178;-75
2021/04/16 03:26:36;;;;;;;10.13;7.90;;;;;;;3.50;69.73;97130.66;1675814;85;21152;-75
2021/04/16 03:29:05;;;;;;;13.60;8.05;;;;;;;3.56;69.99;97130.80;1689852;84;21574;-75
2021/04/16 03:31:33;;;;;;;11.85;8.35;;;;;;;3.65;70.29;97134.23;1696201;84;21135;-75
2021/04/16 03:34:03;;;;;;;10.78;8.05;;;;;;;3.79;70.39;97135.27;1696327;84;21162;-75
2021/04/16 03:36:30;;;;;;;9.23;7.20;;;;;;;3.90;70.39;97132.95;1696416;84;21163;-76
2021/04/16 03:38:58;;;;;;;11.78;6.55;;;;;;;4.03;70.29;97135.30;1687787;84;21115;-76
2021/04/16 03:41:26;;;;;;;15.15;9.25;;;;;;;4.14;70.19;97138.62;1696615;84;21171;-76
2021/04/16 03:43:53;;;;;;;11.53;7.12;;;;;;;4.22;69.96;97138.23;1696363;84;21585;-75
2021/04/16 03:46:21;;;;;;;11.35;6.92;;;;;;;4.29;69.90;97136.97;1696613;84;21162;-75
2021/04/16 03:48:49;;;;;;;11.28;7.70;;;;;;;4.37;69.77;97132.16;1694319;84;21168;-76
2021/04/16 03:51:17;;;;;;;9.78;7.62;;;;;;;4.43;69.54;97132.74;1690741;84;21553;-77
2021/04/16 03:53:45;;;;;;;15.83;8.43;;;;;;;4.49;69.43;97136.34;1697013;84;21103;-76
2021/04/16 03:56:14;;;;;;;11.50;8.88;;;;;;;4.52;69.22;97129.63;1701896;84;21175;-75
2021/04/16 03:58:43;;;;;;;12.80;9.48;;;;;;;4.47;69.05;97132.48;1691655;84;21124;-75
2021/04/16 04:01:12;;;;;;;13.60;8.63;;;;;;;4.45;68.98;97141.34;1697628;83;21147;-77
2021/04/16 04:03:39;;;;;;;10.75;8.15;;;;;;;4.38;68.94;97140.38;1689073;84;21140;-74
2021/04/16 04:06:07;;;;;;;12.98;9.10;;;;;;;4.30;68.92;97137.79;1694216;84;21145;-75
2021/04/16 04:08:35;;;;;;;12.07;9.18;;;;;;;4.21;68.95;97142.59;1701755;84;21144;-76
2021/04/16 04:11:04;;;;;;;14.68;11.22;;;;;;;4.16;69.09;97148.97;1699595;84;21155;-75
2021/04/16 04:13:31;;;;;;;15.15;10.25;;;;;;;4.09;69.16;97155.45;1697745;84;21155;-75
2021/04/16 04:15:59;;;;;;;10.98;9.70;;;;;;;4.06;69.32;97157.77;1693118;84;21160;-76
2021/04/16 04:18:30;;;;;;;15.50;12.10;;;;;;;4.04;69.36;97160.43;1688095;84;21579;-76
2021/04/16 04:20:59;;;;;;;19.67;13.13;;;;;;;4.02;69.37;97158.39;1687990;84;21208;-74
2021/04/16 04:23:28;;;;;;;21.57;14.00;;;;;;;4.01;69.47;97151.93;1702388;83;21130;-76
2021/04/16 04:25:58;;;;;;;15.08;11.40;;;;;;;3.99;69.55;97148.11;1702535;83;21119;-75
2021/04/16 04:28:26;;;;;;;19.00;13.28;;;;;;;3.98;69.42;97155.55;1697473;84;21143;-76
2021/04/16 04:30:54;;;;;;;17.77;12.63;;;;;;;3.96;69.50;97150.87;1695686;83;21190;-75
2021/04/16 04:33:21;;;;;;;15.53;11.38;;;;;;;3.99;69.64;97147.28;1698419;84;21124;-76
2021/04/16 04:35:50;;;;;;;14.00;10.45;;;;;;;4.00;69.71;97151.10;1688139;84;21144;-77
2021/04/16 04:38:18;;;;;;;12.95;8.90;;;;;;;4.00;69.48;97149.80;1691913;84;21115;-75
2021/04/16 04:40:45;;;;;;;13.25;10.13;;;;;;;3.98;69.41;97145.12;1682760;84;21135;-77
2021/04/16 04:43:13;;;;;;;14.47;10.28;;;;;;;3.99;69.23;97154.62;1700923;84;21167;-76
2021/04/16 04:45:41;;;;;;;16.97;9.88;;;;;;;4.01;69.57;97146.72;1701889;84;21175;-77
2021/04/16 04:48:09;;;;;;;11.60;9.33;;;;;;;4.04;69.48;97151.30;1700008;84;21162;-76
2021/04/16 04:50:36;;;;;;;12.80;9.63;;;;;;;4.10;69.44;97146.70;1683818;85;21155;-77
2021/04/16 04:53:03;;;;;;;15.80;11.30;;;;;;;4.16;69.31;97148.53;1682111;85;21163;-77
2021/04/16 04:55:33;;;;;;;15.38;11.45;;;;;;;4.22;69.20;97150.80;1696216;85;21163;-76
2021/04/16 04:58:01;;;;;;;14.13;9.93;;;;;;;4.30;69.22;97150.84;1684987;85;21162;-77
2021/04/16 05:00:29;;;;;;;17.60;10.90;;;;;;;4.37;69.13;97146.97;1691093;84;21180;-77
2021/04/16 05:02:57;;;;;;;15.13;11.83;;;;;;;4.48;69.07;97148.53;1693130;84;21174;-75
2021/04/16 05:05:26;;;;;;;15.85;11.78;;;;;;;4.76;69.39;97160.54;1688301;84;21143;-78
2021/04/16 05:07:54;;;;;;;19.85;12.75;;;;;;;5.31;69.64;97160.02;1695763;83;21190;-76
2021/04/16 05:10:21;;;;;;;25.72;14.47;;;;;;;5.88;69.13;97150.59;1680633;85;21170;-77
2021/04/16 05:12:49;;;;;;;17.73;13.60;;;;;;;6.44;68.43;97153.77;1684546;84;21151;-77
2021/04/16 05:15:18;;;;;;;15.83;12.45;;;;;;;7.06;67.67;97155.53;1684264;84;21111;-76
2021/04/16 05:17:46;;;;;;;15.63;11.75;;;;;;;7.53;66.58;97150.72;1654333;87;21167;-77
2021/04/16 05:20:15;;;;;;;14.78;10.10;;;;;;;7.90;65.51;97156.10;1650876;87;21164;-77
2021/04/16 05:22:44;;;;;;;13.53;10.32;;;;;;;7.98;64.60;97155.09;1652919;87;21615;-77
2021/04/16 05:25:12;;;;;;;14.07;10.38;;;;;;;7.94;63.54;97162.80;1653588;87;21217;-77
2021/04/16 05:27:40;;;;;;;17.67;10.23;;;;;;;7.94;63.54;97162.80;1687690;84;21188;-75
2021/04/16 05:30:09;;;;;;;15.15;10.20;;;;;;;8.00;62.96;97156.30;1697053;84;21150;-76
2021/04/16 05:32:37;;;;;;;8.53;6.55;;;;;;;8.31;63.34;97148.92;1671472;84;21139;-75
2021/04/16 05:35:07;;;;;;;16.07;9.38;;;;;;;9.16;61.48;97142.87;1684965;85;21600;-76
2021/04/16 05:37:34;;;;;;;17.80;11.15;;;;;;;9.16;61.48;97142.87;1670538;84;21127;-75
2021/04/16 05:40:01;;;;;;;13.68;11.40;;;;;;;9.33;60.79;97150.83;1696757;84;21093;-77
2021/04/16 05:42:29;;;;;;;23.38;12.13;;;;;;;9.85;60.40;97141.63;1696509;84;21561;-76
2021/04/16 05:44:59;;;;;;;12.28;9.75;;;;;;;10.54;59.81;97149.08;1687989;84;21151;-81
2021/04/16 05:47:25;;;;;;;14.63;9.98;;;;;;;11.10;58.53;97143.31;1686408;84;21112;-79
2021/04/16 05:49:53;;;;;;;12.33;10.48;;;;;;;11.72;57.48;97148.80;1684435;84;21572;-79
2021/04/16 05:52:21;;;;;;;12.50;9.50;;;;;;;12.11;57.17;97150.84;1690853;84;21159;-75
2021/04/16 05:54:48;;;;;;;15.50;9.93;;;;;;;12.43;56.81;97149.39;1690009;84;21179;-78
2021/04/16 05:57:16;;;;;;;11.08;9.33;;;;;;;12.47;55.47;97153.45;1690095;83;21517;-79
2021/04/16 05:59:44;;;;;;;11.00;7.97;;;;;;;12.70;53.44;97150.58;1699272;83;21201;-78
2021/04/16 06:02:37;;;;;;;13.58;7.95;;;;;;;13.06;51.51;97147.45;1719960;83;21166;-79
2021/04/16 06:05:13;;;;;;;12.73;7.85;;;;;;;13.62;49.09;97149.91;1703209;83;21147;-77
2021/04/16 06:07:41;;;;;;;12.90;7.80;;;;;;;14.19;49.97;97147.29;1693971;84;21622;-79
2021/04/16 06:10:10;;;;;;;8.88;7.97;;;;;;;14.60;48.40;97145.65;1695478;83;21192;-76
2021/04/16 06:12:38;;;;;;;10.93;8.95;;;;;;;14.92;46.17;97149.67;1694231;83;21211;-77
2021/04/16 06:15:11;;;;;;;8.15;7.35;;;;;;;14.79;47.70;97146.05;1710260;83;21507;-79
2021/04/16 06:17:39;;;;;;;10.38;6.95;;;;;;;14.57;46.63;97150.42;1725263;83;21119;-78
2021/04/16 06:20:10;;;;;;;12.33;7.47;;;;;;;14.18;46.63;97158.87;1701617;83;21116;-80
2021/04/16 06:22:37;;;;;;;16.50;7.70;;;;;;;14.12;46.68;97151.47;1695062;83;21179;-79
2021/04/16 06:25:07;;;;;;;7.95;6.70;;;;;;;13.93;46.49;97151.52;1702070;83;21115;-78
2021/04/16 06:27:35;;;;;;;11.97;8.03;;;;;;;13.60;47.22;97162.45;1709543;83;21151;-78
2021/04/16 06:30:08;;;;;;;7.65;5.60;;;;;;;13.32;45.64;97160.96;1712662;83;21148;-79
2021/04/16 06:32:36;;;;;;;8.00;7.17;;;;;;;13.10;46.52;97159.41;1710808;83;21166;-79
2021/04/16 06:35:05;;;;;;;7.75;6.87;;;;;;;12.65;46.35;97164.70;1702905;83;21116;-74
2021/04/16 06:37:33;;;;;;;8.58;7.28;;;;;;;12.38;47.08;97169.25;1654193;87;21173;-77
2021/04/16 06:40:00;;;;;;;8.08;6.28;;;;;;;12.23;46.67;97163.48;1690264;84;21160;-74
2021/04/16 06:42:32;;;;;;;7.60;6.80;;;;;;;12.10;46.92;97161.91;1649985;85;21198;-76
2021/04/16 06:45:04;;;;;;;12.20;7.03;;;;;;;11.98;47.15;97162.95;1648536;85;21163;-80
2021/04/16 06:47:52;;;;;;;7.95;6.30;;;;;;;11.74;47.00;97165.83;1649321;85;21159;-75
2021/04/16 06:50:24;;;;;;;8.03;6.00;;;;;;;11.55;46.91;97162.91;1633100;87;21176;-77
2021/04/16 06:53:32;;;;;;;6.25;5.42;;;;;;;11.46;47.43;97168.95;1632175;88;21593;-74
2021/04/16 06:56:11;;;;;;;7.05;6.22;;;;;;;11.36;47.12;97175.48;1627720;88;21167;-77
2021/04/16 06:59:08;;;;;;;9.78;6.30;;;;;;;11.18;47.56;97173.03;1626644;88;21167;-77
2021/04/16 07:01:55;;;;;;;5.87;5.20;;;;;;;11.16;47.03;97170.53;1643920;87;21613;-75
2021/04/16 07:04:44;;;;;;;7.35;6.08;;;;;;;11.33;46.36;97171.77;1643731;86;21625;-73
2021/04/16 07:07:29;;;;;;;13.72;5.62;;;;;;;11.06;45.62;97175.70;1645048;87;21195;-75
2021/04/16 07:10:20;;;;;;;6.45;5.10;;;;;;;11.42;47.34;97174.14;1644243;87;21171;-75
2021/04/16 07:12:48;;;;;;;7.05;5.20;;;;;;;11.84;44.69;97184.72;1644246;86;21206;-73
2021/04/16 07:15:36;;;;;;;6.85;6.10;;;;;;;12.15;45.70;97182.66;1642495;87;21496;-74
2021/04/16 07:18:05;;;;;;;6.15;4.35;;;;;;;12.64;44.34;97172.28;1640287;87;21166;-78
2021/04/16 07:20:33;;;;;;;6.62;5.53;;;;;;;12.80;43.41;97175.74;1644146;87;21222;-76
2021/04/16 07:23:01;;;;;;;5.17;4.12;;;;;;;12.96;44.41;97177.84;1648238;87;21643;-77
2021/04/16 07:25:49;;;;;;;6.37;4.28;;;;;;;12.91;41.47;97180.90;1647586;87;21224;-76
2021/04/16 07:28:44;;;;;;;7.47;5.60;;;;;;;12.57;42.32;97187.02;1669377;85;21171;-76
2021/04/16 07:31:47;;;;;;;4.97;3.50;;;;;;;12.38;41.67;97182.47;1658932;85;21179;-75
2021/04/16 07:34:32;;;;;;;6.80;5.55;;;;;;;12.15;41.16;97186.13;1613742;87;21196;-75
2021/04/16 07:37:14;;;;;;;6.20;4.40;;;;;;;11.14;42.82;97181.69;1634100;87;21620;-78
2021/04/16 07:40:07;;;;;;;6.58;5.55;;;;;;;11.02;42.55;97186.63;1637635;87;21709;-76
2021/04/16 07:42:54;;;;;;;7.22;6.00;;;;;;;11.01;43.74;97185.80;1644735;86;21197;-77
2021/04/16 07:45:39;;;;;;;5.90;4.83;;;;;;;11.39;44.32;97178.34;1753419;81;21152;-76
2021/04/16 07:48:29;;;;;;;6.00;4.08;;;;;;;11.56;42.89;97183.06;1755005;81;21534;-77
2021/04/16 07:50:56;;;;;;;4.78;3.50;;;;;;;11.60;43.64;97184.14;1709275;84;21159;-76
2021/04/16 07:53:35;;;;;;;5.45;4.58;;;;;;;11.67;42.22;97191.90;1732883;82;21147;-76
2021/04/16 07:56:08;;;;;;;4.15;3.67;;;;;;;10.75;42.34;97190.52;1750935;82;21123;-76
2021/04/16 07:58:36;;;;;;;8.05;4.60;;;;;;;10.23;43.63;97192.31;1752692;82;21751;-75
2021/04/16 08:04:12;;;;;;;10.63;3.77;;;;;;;10.05;44.68;97194.55;1672936;84;21719;-75
2021/04/16 08:06:44;;;;;;;6.08;4.65;;;;;;;9.98;43.89;97191.55;1675524;85;21132;-76
2021/04/16 08:09:29;;;;;;;5.83;4.37;;;;;;;9.42;44.00;97194.05;1683515;85;21171;-76
2021/04/16 08:12:14;;;;;;;6.65;4.60;;;;;;;9.10;44.88;97198.55;1689106;84;21136;-75
2021/04/16 08:14:44;;;;;;;7.80;4.58;;;;;;;9.21;45.85;97194.18;1667880;85;21605;-76
2021/04/16 08:17:22;;;;;;;5.45;4.35;;;;;;;9.55;45.96;97192.16;1675360;85;21109;-74
2021/04/16 08:19:51;;;;;;;5.78;4.30;;;;;;;9.88;45.90;97191.91;1688900;85;21651;-75
2021/04/16 08:22:34;;;;;;;5.03;4.12;;;;;;;10.09;45.11;97192.52;1666031;85;21144;-76
2021/04/16 08:25:09;;;;;;;5.42;4.15;;;;;;;10.09;44.88;97191.20;1683748;85;21194;-76
2021/04/16 08:27:48;;;;;;;4.10;3.33;;;;;;;10.30;44.60;97196.64;1667859;84;21154;-75
2021/04/16 08:31:01;;;;;;;6.78;4.20;;;;;;;10.49;44.43;97195.23;1684518;85;21151;-77
2021/04/16 08:33:52;;;;;;;4.90;3.47;;;;;;;10.52;44.77;97201.56;1687215;84;21136;-76
2021/04/16 08:36:39;;;;;;;5.00;4.15;;;;;;;10.55;44.21;97203.47;1691720;84;21169;-76
2021/04/16 08:39:27;;;;;;;6.28;3.77;;;;;;;10.51;44.10;97207.33;1688508;84;21151;-76
2021/04/16 08:45:01;;;;;;;4.97;3.87;;;;;;;10.50;44.22;97210.91;1714510;83;21168;-76
2021/04/16 08:47:39;;;;;;;5.22;4.28;;;;;;;10.71;44.26;97208.88;1740016;82;21153;-77
2021/04/16 08:50:08;;;;;;;4.85;3.77;;;;;;;10.86;44.58;97212.92;1709310;82;21146;-76
2021/04/16 08:52:53;;;;;;;6.33;4.25;;;;;;;10.94;44.19;97213.14;1704210;83;21144;-77
2021/04/16 08:55:32;;;;;;;4.17;3.42;;;;;;;10.86;44.17;97209.42;1730831;83;21124;-76
2021/04/16 08:58:29;;;;;;;3.33;2.55;;;;;;;10.76;44.73;97213.28;1733790;81;21187;-79
2021/04/16 09:01:14;;;;;;;3.22;2.20;;;;;;;10.46;44.78;97223.50;1743530;81;21350;-80
2021/04/16 09:03:52;;;;;;;3.95;2.85;;;;;;;10.19;45.39;97226.91;1726658;83;21122;-76
2021/04/16 09:06:35;;;;;;;4.70;3.00;;;;;;;9.90;45.74;97226.84;1735422;81;21147;-77
2021/04/16 09:09:07;;;;;;;4.35;2.98;;;;;;;9.69;46.22;97229.30;1742788;82;21144;-76
2021/04/16 09:11:49;;;;;;;7.25;3.45;;;;;;;9.44;46.54;97235.07;1748824;81;21136;-75
2021/04/16 09:14:34;;;;;;;5.62;3.15;;;;;;;9.23;47.09;97237.48;1741511;81;21103;-77
2021/04/16 09:17:07;;;;;;;5.00;3.30;;;;;;;8.99;47.32;97242.23;1719291;83;21159;-77
2021/04/16 09:19:39;;;;;;;4.25;2.95;;;;;;;8.68;48.58;97248.34;1735461;83;21317;-75
2021/04/16 09:22:12;;;;;;;7.05;2.75;;;;;;;8.46;48.60;97254.22;1734939;83;21146;-79
2021/04/16 09:24:51;;;;;;;4.45;3.37;;;;;;;8.34;49.86;97256.41;1732385;83;21583;-77
2021/04/16 09:27:43;;;;;;;4.97;3.67;;;;;;;8.29;50.41;97261.97;1736448;81;21167;-78
2021/04/16 09:30:19;;;;;;;7.62;4.12;;;;;;;8.18;51.14;97258.73;1709352;83;21147;-76
2021/04/16 09:32:54;;;;;;;5.12;4.17;;;;;;;8.17;52.12;97256.23;1707953;83;21249;-77
2021/04/16 09:35:33;;;;;;;6.25;3.98;;;;;;;8.18;53.21;97250.86;1733513;83;21108;-78
2021/04/16 09:38:35;;;;;;;8.05;4.03;;;;;;;8.17;52.50;97252.29;1700213;82;21155;-76
2021/04/16 09:41:25;;;;;;;5.22;3.67;;;;;;;8.24;53.64;97246.52;1678278;85;21158;-76
2021/04/16 09:43:56;;;;;;;5.60;4.62;;;;;;;8.32;52.55;97233.33;1717272;83;21266;-78
2021/04/16 09:46:38;;;;;;;4.72;4.12;;;;;;;8.32;52.55;97233.33;1730856;83;21136;-76
2021/04/16 09:49:33;;;;;;;4.20;3.60;;;;;;;8.48;52.13;97236.60;1734388;83;21131;-78
2021/04/16 09:52:24;;;;;;;4.70;4.20;;;;;;;8.64;51.62;97233.75;1734311;83;21473;-77
2021/04/16 09:55:00;;;;;;;4.37;3.60;;;;;;;9.00;51.89;97229.45;1780425;79;23005;-77
2021/04/16 09:57:38;;;;;;;5.62;4.78;;;;;;;9.13;51.10;97228.09;1753816;81;21522;-77
2021/04/16 10:00:38;;;;;;;4.62;3.65;;;;;;;9.30;50.65;97231.28;1753457;82;21145;-80
2021/04/16 10:03:45;;;;;;;3.95;3.55;;;;;;;9.46;50.65;97224.42;1709051;84;21714;-77
2021/04/16 10:06:39;;;;;;;4.15;3.50;;;;;;;9.61;50.06;97223.77;1712281;82;21751;-75
2021/04/16 10:09:18;;;;;;;4.25;3.12;;;;;;;9.83;50.26;97217.27;1734946;80;21182;-76
2021/04/16 10:12:02;;;;;;;4.97;3.40;;;;;;;9.99;48.29;97207.70;1756039;80;21125;-75
2021/04/16 10:14:35;;;;;;;4.78;3.40;;;;;;;10.18;48.88;97218.16;1746736;80;21589;-75
2021/04/16 10:17:18;;;;;;;4.17;3.20;;;;;;;10.37;48.93;97214.09;1785772;80;21326;-76
2021/04/16 10:19:53;;;;;;;5.80;3.30;;;;;;;10.57;48.76;97212.10;1755285;80;21168;-76
2021/04/16 12:38:43;;;;;;;3.00;1.40;;;;;;;12.40;40.87;97224.16;1754314;82;21157;-80
2021/04/16 12:41:12;;;;;;;2.42;1.72;;;;;;;12.48;39.05;97219.87;1753478;82;21134;-85
2021/04/16 12:43:50;;;;;;;3.33;1.72;;;;;;;12.49;38.11;97213.61;1780422;79;23104;-83
2021/04/16 12:46:21;;;;;;;3.50;1.60;;;;;;;12.45;39.72;97220.15;1753375;81;21148;-77
2021/04/16 12:48:49;;;;;;;2.90;1.60;;;;;;;12.38;39.10;97219.48;1753982;81;21172;-86
2021/04/16 12:51:18;;;;;;;4.17;1.60;;;;;;;12.18;37.70;97212.30;1744482;81;21127;-80
2021/04/16 12:53:45;;;;;;;2.20;1.77;;;;;;;11.83;38.35;97215.23;1737585;82;21112;-85
2021/04/16 12:56:18;;;;;;;1.92;1.42;;;;;;;11.62;38.59;97212.08;1727160;82;21656;-84
2021/04/16 12:58:48;;;;;;;2.77;1.87;;;;;;;11.60;39.11;97206.08;1754138;82;21132;-82
2021/04/16 13:01:30;;;;;;;1.82;1.47;;;;;;;11.60;38.32;97209.22;1746164;82;21262;-87
2021/04/16 13:03:59;;;;;;;2.37;1.70;;;;;;;11.55;38.42;97205.14;1733908;82;21624;-85
2021/04/16 13:06:41;;;;;;;2.10;1.60;;;;;;;11.41;38.53;97202.81;1767344;80;21132;-75
2021/04/16 13:09:12;;;;;;;3.75;1.65;;;;;;;11.24;37.69;97197.59;1686752;84;21183;-83
2021/04/16 13:11:40;;;;;;;2.15;1.67;;;;;;;11.07;38.31;97204.25;1704820;82;21128;-86
2021/04/16 13:14:08;;;;;;;2.55;1.70;;;;;;;11.07;38.40;97202.44;1690273;84;21537;-77
2021/04/16 13:16:37;;;;;;;3.08;2.35;;;;;;;11.16;38.64;97200.88;1712836;82;21712;-78
2021/04/16 13:19:13;;;;;;;4.17;1.80;;;;;;;11.09;37.28;97203.63;1723996;82;21132;-80
2021/04/16 13:21:42;;;;;;;;;;;;;;;10.87;37.59;97200.09;1713726;84;21507;-82
2021/04/16 13:24:11;;;;;;;2.33;1.67;;;;;;;10.84;37.38;97204.78;1714702;83;20188;-77
2021/04/16 13:26:39;;;;;;;1.92;1.50;;;;;;;10.67;37.96;97211.37;1701105;84;21190;-83
2021/04/16 13:29:06;;;;;;;2.27;1.72;;;;;;;10.51;37.38;97204.69;1669234;83;21171;-76
2021/04/16 13:31:36;;;;;;;4.55;2.10;;;;;;;10.32;37.93;97203.92;1659574;87;21135;-86
2021/04/16 13:34:05;;;;;;;4.83;2.08;;;;;;;10.18;38.68;97208.11;1643844;85;21202;-82
2021/04/16 13:36:34;;;;;;;2.80;2.05;;;;;;;10.33;39.35;97207.41;1685332;85;21144;-79
2021/04/16 13:39:05;;;;;;;8.65;2.40;;;;;;;10.31;39.29;97209.68;1686555;85;21136;-74
2021/04/16 13:41:35;;;;;;;5.35;2.00;;;;;;;10.41;39.60;97210.31;1682603;85;21116;-80
2021/04/16 13:44:05;;;;;;;2.67;2.10;;;;;;;10.54;39.75;97212.33;1687552;84;21126;-77
2021/04/16 13:46:36;;;;;;;5.65;1.90;;;;;;;10.68;39.71;97217.84;1679169;85;21618;-81
2021/04/16 13:49:08;;;;;;;4.20;2.65;;;;;;;10.76;39.52;97218.06;1711790;83;21513;-80
2021/04/16 13:51:37;;;;;;;2.55;2.08;;;;;;;10.79;39.58;97214.38;1723024;83;21100;-85
2021/04/16 13:54:06;;;;;;;2.70;2.00;;;;;;;10.74;38.25;97212.56;1725731;82;21142;-78
2021/04/16 13:56:36;;;;;;;2.40;1.82;;;;;;;10.70;38.62;97217.73;1752610;82;21160;-78
2021/04/16 13:59:03;;;;;;;2.40;2.08;;;;;;;10.66;39.12;97209.70;1753176;82;21565;-81
2021/04/16 14:01:30;;;;;;;2.75;2.08;;;;;;;10.62;39.17;97215.69;1752960;82;21561;-90
2021/04/16 14:04:03;;;;;;;3.12;2.12;;;;;;;10.60;39.19;97209.70;1752454;82;21428;-80
2021/04/16 14:06:37;;;;;;;4.05;2.12;;;;;;;10.56;39.25;97218.82;1752339;82;21141;-85
2021/04/16 14:09:11;;;;;;;3.45;2.40;;;;;;;10.59;39.53;97214.61;1752755;82;21152;-87
2021/04/16 14:11:38;;;;;;;4.35;2.50;;;;;;;10.65;39.73;97213.29;1752839;82;21608;-80
2021/04/16 14:14:13;;;;;;;4.28;2.80;;;;;;;10.66;39.59;97216.28;1752171;82;21137;-86
2021/04/16 14:16:43;;;;;;;3.40;2.50;;;;;;;10.69;39.75;97222.16;1751957;82;21140;-82
2021/04/16 14:19:24;;;;;;;2.72;2.10;;;;;;;10.73;39.68;97220.11;1730131;82;21160;-82
2021/04/16 14:21:56;;;;;;;4.67;2.37;;;;;;;10.76;39.76;97218.06;1693152;83;21145;-77
2021/04/16 14:24:25;;;;;;;4.30;2.40;;;;;;;10.81;39.76;97220.34;1723048;83;21168;-81